sensor_id;sensor_type;location;lat;lon;timestamp;P1;durP1;ratioP1;P2;durP2;ratioP2
48871;SDS011;36154;51.674;7.824;2022-09-17T00:00:36;0.10;;;0.00;;
48871;SDS011;36154;51.674;7.824;2022-09-17T00:03:03;0.15;;;0.00;;
48871;SDS011;36154;51.674;7.824;2022-09-17T00:05:29;0.10;;;0.10;;
48871;SDS011;36154;51.674;7.824;2022-09-17T00:07:54;0.20;;;0.00;;
48871;SDS011;36154;51.674;7.824;2022-09-17T00:10:19;0.20;;;0.10;;
48871;SDS011;36154;51.674;7.824;2022-09-17T00:12:45;0.63;;;0.10;;
48871;SDS011;36154;51.674;7.824;2022-09-17T00:15:11;0.10;;;0.10;;
48871;SDS011;36154;51.674;7.824;2022-09-17T00:17:37;0.20;;;0.10;;
48871;SDS011;36154;51.674;7.824;2022-09-17T00:20:03;0.10;;;0.08;;
48871;SDS011;36154;51.674;7.824;2022-09-17T00:22:29;0.22;;;0.00;;
48871;SDS011;36154;51.674;7.824;2022-09-17T00:24:54;0.30;;;0.10;;
48871;SDS011;36154;51.674;7.824;2022-09-17T00:27:20;0.73;;;0.10;;
48871;SDS011;36154;51.674;7.824;2022-09-17T00:29:46;0.10;;;0.10;;
48871;SDS011;36154;51.674;7.824;2022-09-17T00:32:12;0.08;;;0.00;;
48871;SDS011;36154;51.674;7.824;2022-09-17T00:34:38;0.35;;;0.00;;
48871;SDS011;36154;51.674;7.824;2022-09-17T00:37:03;0.05;;;0.00;;
48871;SDS011;36154;51.674;7.824;2022-09-17T00:39:28;0.00;;;0.00;;
48871;SDS011;36154;51.674;7.824;2022-09-17T00:41:54;0.38;;;0.13;;
48871;SDS011;36154;51.674;7.824;2022-09-17T00:47:12;0.00;;;0.00;;
48871;SDS011;36154;51.674;7.824;2022-09-17T00:50:03;0.00;;;0.00;;
48871;SDS011;36154;51.674;7.824;2022-09-17T00:52:32;0.13;;;0.00;;
48871;SDS011;36154;51.674;7.824;2022-09-17T00:55:05;0.22;;;0.10;;
48871;SDS011;36154;51.674;7.824;2022-09-17T00:57:35;0.10;;;0.05;;
48871;SDS011;36154;51.674;7.824;2022-09-17T01:00:03;0.00;;;0.00;;
48871;SDS011;36154;51.674;7.824;2022-09-17T01:02:30;0.00;;;0.00;;
48871;SDS011;36154;51.674;7.824;2022-09-17T01:04:55;0.20;;;0.00;;
48871;SDS011;36154;51.674;7.824;2022-09-17T01:07:43;0.00;;;0.00;;
48871;SDS011;36154;51.674;7.824;2022-09-17T01:15:52;0.10;;;0.08;;
48871;SDS011;36154;51.674;7.824;2022-09-17T01:18:53;0.10;;;0.10;;
48871;SDS011;36154;51.674;7.824;2022-09-17T01:27:15;0.00;;;0.00;;
48871;SDS011;36154;51.674;7.824;2022-09-17T01:35:19;0.22;;;0.10;;
48871;SDS011;36154;51.674;7.824;2022-09-17T01:38:00;0.15;;;0.10;;
48871;SDS011;36154;51.674;7.824;2022-09-17T01:40:28;0.15;;;0.00;;
48871;SDS011;36154;51.674;7.824;2022-09-17T01:45:54;0.00;;;0.00;;
48871;SDS011;36154;51.674;7.824;2022-09-17T01:48:29;0.10;;;0.10;;
48871;SDS011;36154;51.674;7.824;2022-09-17T01:53:37;0.10;;;0.00;;
48871;SDS011;36154;51.674;7.824;2022-09-17T01:56:08;0.08;;;0.08;;
48871;SDS011;36154;51.674;7.824;2022-09-17T01:58:40;0.77;;;0.00;;
48871;SDS011;36154;51.674;7.824;2022-09-17T02:01:15;0.30;;;0.08;;
48871;SDS011;36154;51.674;7.824;2022-09-17T02:03:46;0.10;;;0.00;;
48871;SDS011;36154;51.674;7.824;2022-09-17T02:06:20;0.00;;;0.00;;
48871;SDS011;36154;51.674;7.824;2022-09-17T02:09:13;0.08;;;0.00;;
48871;SDS011;36154;51.674;7.824;2022-09-17T02:11:50;0.00;;;0.00;;
48871;SDS011;36154;51.674;7.824;2022-09-17T02:14:27;0.25;;;0.00;;
48871;SDS011;36154;51.674;7.824;2022-09-17T02:17:06;0.10;;;0.00;;
48871;SDS011;36154;51.674;7.824;2022-09-17T02:19:36;0.05;;;0.00;;
48871;SDS011;36154;51.674;7.824;2022-09-17T02:22:20;0.00;;;0.00;;
48871;SDS011;36154;51.674;7.824;2022-09-17T02:28:04;0.20;;;0.00;;
48871;SDS011;36154;51.674;7.824;2022-09-17T02:30:35;0.10;;;0.10;;
48871;SDS011;36154;51.674;7.824;2022-09-17T02:33:01;0.00;;;0.00;;
48871;SDS011;36154;51.674;7.824;2022-09-17T02:35:30;0.10;;;0.00;;
48871;SDS011;36154;51.674;7.824;2022-09-17T02:37:57;0.08;;;0.03;;
48871;SDS011;36154;51.674;7.824;2022-09-17T02:40:24;0.00;;;0.00;;
48871;SDS011;36154;51.674;7.824;2022-09-17T02:45:50;0.00;;;0.00;;
48871;SDS011;36154;51.674;7.824;2022-09-17T02:51:22;0.08;;;0.08;;
48871;SDS011;36154;51.674;7.824;2022-09-17T02:54:21;0.05;;;0.05;;
48871;SDS011;36154;51.674;7.824;2022-09-17T02:57:14;0.10;;;0.03;;
48871;SDS011;36154;51.674;7.824;2022-09-17T03:00:11;0.00;;;0.00;;
48871;SDS011;36154;51.674;7.824;2022-09-17T03:03:22;0.00;;;0.00;;
48871;SDS011;36154;51.674;7.824;2022-09-17T03:05:32;0.03;;;0.03;;
48871;SDS011;36154;51.674;7.824;2022-09-17T03:08:00;0.15;;;0.10;;
48871;SDS011;36154;51.674;7.824;2022-09-17T03:10:26;0.00;;;0.00;;
48871;SDS011;36154;51.674;7.824;2022-09-17T03:12:54;0.40;;;0.10;;
48871;SDS011;36154;51.674;7.824;2022-09-17T03:15:20;0.17;;;0.10;;
48871;SDS011;36154;51.674;7.824;2022-09-17T03:17:45;0.30;;;0.10;;
48871;SDS011;36154;51.674;7.824;2022-09-17T03:20:10;0.55;;;0.00;;
48871;SDS011;36154;51.674;7.824;2022-09-17T03:22:35;0.10;;;0.00;;
48871;SDS011;36154;51.674;7.824;2022-09-17T03:25:01;0.30;;;0.10;;
48871;SDS011;36154;51.674;7.824;2022-09-17T03:27:26;0.08;;;0.05;;
48871;SDS011;36154;51.674;7.824;2022-09-17T03:29:51;0.00;;;0.00;;
48871;SDS011;36154;51.674;7.824;2022-09-17T03:32:16;0.25;;;0.10;;
48871;SDS011;36154;51.674;7.824;2022-09-17T03:34:42;0.38;;;0.08;;
48871;SDS011;36154;51.674;7.824;2022-09-17T03:37:07;0.22;;;0.20;;
48871;SDS011;36154;51.674;7.824;2022-09-17T03:39:32;0.00;;;0.00;;
48871;SDS011;36154;51.674;7.824;2022-09-17T03:41:58;0.30;;;0.10;;
48871;SDS011;36154;51.674;7.824;2022-09-17T03:44:23;0.00;;;0.00;;
48871;SDS011;36154;51.674;7.824;2022-09-17T03:46:49;0.08;;;0.08;;
48871;SDS011;36154;51.674;7.824;2022-09-17T03:49:14;0.20;;;0.10;;
48871;SDS011;36154;51.674;7.824;2022-09-17T03:51:40;0.52;;;0.20;;
48871;SDS011;36154;51.674;7.824;2022-09-17T03:54:05;0.80;;;0.10;;
48871;SDS011;36154;51.674;7.824;2022-09-17T03:56:31;0.05;;;0.00;;
48871;SDS011;36154;51.674;7.824;2022-09-17T03:58:57;0.40;;;0.10;;
48871;SDS011;36154;51.674;7.824;2022-09-17T04:01:23;0.20;;;0.10;;
48871;SDS011;36154;51.674;7.824;2022-09-17T04:03:49;0.28;;;0.10;;
48871;SDS011;36154;51.674;7.824;2022-09-17T04:06:14;0.40;;;0.10;;
48871;SDS011;36154;51.674;7.824;2022-09-17T04:08:40;0.10;;;0.10;;
48871;SDS011;36154;51.674;7.824;2022-09-17T04:11:05;0.10;;;0.10;;
48871;SDS011;36154;51.674;7.824;2022-09-17T04:13:31;0.20;;;0.10;;
48871;SDS011;36154;51.674;7.824;2022-09-17T04:15:57;0.85;;;0.20;;
48871;SDS011;36154;51.674;7.824;2022-09-17T04:18:22;0.10;;;0.10;;
48871;SDS011;36154;51.674;7.824;2022-09-17T04:20:47;0.17;;;0.10;;
48871;SDS011;36154;51.674;7.824;2022-09-17T04:23:12;0.28;;;0.10;;
48871;SDS011;36154;51.674;7.824;2022-09-17T04:25:38;0.30;;;0.10;;
48871;SDS011;36154;51.674;7.824;2022-09-17T04:28:03;0.35;;;0.10;;
48871;SDS011;36154;51.674;7.824;2022-09-17T04:30:28;0.28;;;0.10;;
48871;SDS011;36154;51.674;7.824;2022-09-17T04:32:54;0.95;;;0.10;;
48871;SDS011;36154;51.674;7.824;2022-09-17T04:35:19;0.10;;;0.10;;
48871;SDS011;36154;51.674;7.824;2022-09-17T04:37:50;0.20;;;0.20;;
48871;SDS011;36154;51.674;7.824;2022-09-17T04:40:19;0.68;;;0.20;;
48871;SDS011;36154;51.674;7.824;2022-09-17T04:42:45;0.30;;;0.10;;
48871;SDS011;36154;51.674;7.824;2022-09-17T04:45:10;0.20;;;0.20;;
48871;SDS011;36154;51.674;7.824;2022-09-17T04:47:39;0.20;;;0.10;;
48871;SDS011;36154;51.674;7.824;2022-09-17T04:50:05;0.10;;;0.10;;
48871;SDS011;36154;51.674;7.824;2022-09-17T04:52:30;0.20;;;0.10;;
48871;SDS011;36154;51.674;7.824;2022-09-17T04:54:56;0.73;;;0.28;;
48871;SDS011;36154;51.674;7.824;2022-09-17T04:57:21;0.35;;;0.20;;
48871;SDS011;36154;51.674;7.824;2022-09-17T04:59:49;0.10;;;0.00;;
48871;SDS011;36154;51.674;7.824;2022-09-17T05:02:14;0.10;;;0.00;;
48871;SDS011;36154;51.674;7.824;2022-09-17T05:04:40;0.22;;;0.10;;
48871;SDS011;36154;51.674;7.824;2022-09-17T05:07:05;0.20;;;0.10;;
48871;SDS011;36154;51.674;7.824;2022-09-17T05:09:30;0.10;;;0.10;;
48871;SDS011;36154;51.674;7.824;2022-09-17T05:11:55;0.00;;;0.00;;
48871;SDS011;36154;51.674;7.824;2022-09-17T05:14:21;0.35;;;0.20;;
48871;SDS011;36154;51.674;7.824;2022-09-17T05:16:46;0.13;;;0.10;;
48871;SDS011;36154;51.674;7.824;2022-09-17T05:19:11;0.20;;;0.15;;
48871;SDS011;36154;51.674;7.824;2022-09-17T05:21:37;0.80;;;0.10;;
48871;SDS011;36154;51.674;7.824;2022-09-17T05:24:02;0.45;;;0.10;;
48871;SDS011;36154;51.674;7.824;2022-09-17T05:26:27;0.40;;;0.10;;
48871;SDS011;36154;51.674;7.824;2022-09-17T05:28:53;0.10;;;0.10;;
48871;SDS011;36154;51.674;7.824;2022-09-17T05:31:18;0.20;;;0.10;;
48871;SDS011;36154;51.674;7.824;2022-09-17T05:33:44;0.50;;;0.20;;
48871;SDS011;36154;51.674;7.824;2022-09-17T05:36:09;0.85;;;0.20;;
48871;SDS011;36154;51.674;7.824;2022-09-17T05:38:35;0.13;;;0.10;;
48871;SDS011;36154;51.674;7.824;2022-09-17T05:41:04;0.40;;;0.10;;
48871;SDS011;36154;51.674;7.824;2022-09-17T05:43:31;0.93;;;0.10;;
48871;SDS011;36154;51.674;7.824;2022-09-17T05:46:03;0.20;;;0.20;;
48871;SDS011;36154;51.674;7.824;2022-09-17T05:48:29;0.55;;;0.28;;
48871;SDS011;36154;51.674;7.824;2022-09-17T05:50:55;0.30;;;0.10;;
48871;SDS011;36154;51.674;7.824;2022-09-17T05:53:20;0.30;;;0.20;;
48871;SDS011;36154;51.674;7.824;2022-09-17T05:55:45;0.20;;;0.10;;
48871;SDS011;36154;51.674;7.824;2022-09-17T05:58:11;0.32;;;0.10;;
48871;SDS011;36154;51.674;7.824;2022-09-17T06:00:38;0.95;;;0.20;;
48871;SDS011;36154;51.674;7.824;2022-09-17T06:03:05;0.43;;;0.10;;
48871;SDS011;36154;51.674;7.824;2022-09-17T06:05:30;0.60;;;0.20;;
48871;SDS011;36154;51.674;7.824;2022-09-17T06:07:56;3.83;;;0.15;;
48871;SDS011;36154;51.674;7.824;2022-09-17T06:10:21;0.40;;;0.20;;
48871;SDS011;36154;51.674;7.824;2022-09-17T06:12:46;0.20;;;0.20;;
48871;SDS011;36154;51.674;7.824;2022-09-17T06:15:12;0.50;;;0.10;;
48871;SDS011;36154;51.674;7.824;2022-09-17T06:17:38;0.10;;;0.10;;
48871;SDS011;36154;51.674;7.824;2022-09-17T06:20:04;0.30;;;0.10;;
48871;SDS011;36154;51.674;7.824;2022-09-17T06:22:30;0.13;;;0.10;;
48871;SDS011;36154;51.674;7.824;2022-09-17T06:24:55;0.50;;;0.20;;
48871;SDS011;36154;51.674;7.824;2022-09-17T06:27:20;0.40;;;0.20;;
48871;SDS011;36154;51.674;7.824;2022-09-17T06:29:46;0.20;;;0.10;;
48871;SDS011;36154;51.674;7.824;2022-09-17T06:32:11;0.85;;;0.15;;
48871;SDS011;36154;51.674;7.824;2022-09-17T06:34:39;0.63;;;0.10;;
48871;SDS011;36154;51.674;7.824;2022-09-17T06:37:05;0.20;;;0.10;;
48871;SDS011;36154;51.674;7.824;2022-09-17T06:39:30;0.20;;;0.10;;
48871;SDS011;36154;51.674;7.824;2022-09-17T06:41:56;0.10;;;0.03;;
48871;SDS011;36154;51.674;7.824;2022-09-17T06:44:21;0.63;;;0.10;;
48871;SDS011;36154;51.674;7.824;2022-09-17T06:46:49;1.50;;;0.17;;
48871;SDS011;36154;51.674;7.824;2022-09-17T06:49:15;0.13;;;0.10;;
48871;SDS011;36154;51.674;7.824;2022-09-17T06:51:41;0.82;;;0.08;;
48871;SDS011;36154;51.674;7.824;2022-09-17T06:54:07;0.63;;;0.20;;
48871;SDS011;36154;51.674;7.824;2022-09-17T06:56:32;6.32;;;1.00;;
48871;SDS011;36154;51.674;7.824;2022-09-17T06:58:58;5.90;;;1.10;;
48871;SDS011;36154;51.674;7.824;2022-09-17T07:01:23;19.73;;;2.58;;
48871;SDS011;36154;51.674;7.824;2022-09-17T07:03:49;20.33;;;3.95;;
48871;SDS011;36154;51.674;7.824;2022-09-17T07:06:14;16.95;;;4.43;;
48871;SDS011;36154;51.674;7.824;2022-09-17T07:08:39;18.67;;;4.90;;
48871;SDS011;36154;51.674;7.824;2022-09-17T07:11:05;17.35;;;4.10;;
48871;SDS011;36154;51.674;7.824;2022-09-17T07:13:32;22.55;;;4.43;;
48871;SDS011;36154;51.674;7.824;2022-09-17T07:15:58;19.90;;;3.72;;
48871;SDS011;36154;51.674;7.824;2022-09-17T07:18:25;17.92;;;3.75;;
48871;SDS011;36154;51.674;7.824;2022-09-17T07:20:55;22.75;;;3.95;;
48871;SDS011;36154;51.674;7.824;2022-09-17T07:23:25;16.33;;;4.00;;
48871;SDS011;36154;51.674;7.824;2022-09-17T07:25:53;15.70;;;4.20;;
48871;SDS011;36154;51.674;7.824;2022-09-17T07:28:19;22.50;;;4.75;;
48871;SDS011;36154;51.674;7.824;2022-09-17T07:30:46;15.18;;;4.60;;
48871;SDS011;36154;51.674;7.824;2022-09-17T07:33:12;16.83;;;4.63;;
48871;SDS011;36154;51.674;7.824;2022-09-17T07:35:38;24.73;;;4.78;;
48871;SDS011;36154;51.674;7.824;2022-09-17T07:38:04;23.15;;;5.22;;
48871;SDS011;36154;51.674;7.824;2022-09-17T07:40:29;21.20;;;4.82;;
48871;SDS011;36154;51.674;7.824;2022-09-17T07:42:57;15.27;;;4.47;;
48871;SDS011;36154;51.674;7.824;2022-09-17T07:45:23;20.13;;;5.10;;
48871;SDS011;36154;51.674;7.824;2022-09-17T07:47:48;20.17;;;5.13;;
48871;SDS011;36154;51.674;7.824;2022-09-17T07:50:14;20.60;;;5.40;;
48871;SDS011;36154;51.674;7.824;2022-09-17T07:52:47;18.33;;;5.05;;
48871;SDS011;36154;51.674;7.824;2022-09-17T07:55:12;17.10;;;5.63;;
48871;SDS011;36154;51.674;7.824;2022-09-17T07:57:39;19.38;;;5.28;;
48871;SDS011;36154;51.674;7.824;2022-09-17T08:00:04;18.17;;;4.85;;
48871;SDS011;36154;51.674;7.824;2022-09-17T08:02:31;15.57;;;5.22;;
48871;SDS011;36154;51.674;7.824;2022-09-17T08:04:56;17.42;;;4.80;;
48871;SDS011;36154;51.674;7.824;2022-09-17T08:07:21;16.75;;;4.85;;
48871;SDS011;36154;51.674;7.824;2022-09-17T08:09:48;16.00;;;5.00;;
48871;SDS011;36154;51.674;7.824;2022-09-17T08:12:13;21.15;;;5.55;;
48871;SDS011;36154;51.674;7.824;2022-09-17T08:14:39;18.60;;;4.60;;
48871;SDS011;36154;51.674;7.824;2022-09-17T08:17:05;14.55;;;4.32;;
48871;SDS011;36154;51.674;7.824;2022-09-17T08:19:32;11.38;;;4.32;;
48871;SDS011;36154;51.674;7.824;2022-09-17T08:21:58;13.57;;;4.10;;
48871;SDS011;36154;51.674;7.824;2022-09-17T08:24:23;15.00;;;4.18;;
48871;SDS011;36154;51.674;7.824;2022-09-17T08:26:48;14.48;;;4.10;;
48871;SDS011;36154;51.674;7.824;2022-09-17T08:29:13;11.32;;;3.45;;
48871;SDS011;36154;51.674;7.824;2022-09-17T08:31:39;17.08;;;4.35;;
48871;SDS011;36154;51.674;7.824;2022-09-17T08:34:08;10.35;;;3.60;;
48871;SDS011;36154;51.674;7.824;2022-09-17T08:36:34;16.15;;;4.28;;
48871;SDS011;36154;51.674;7.824;2022-09-17T08:38:59;15.20;;;4.07;;
48871;SDS011;36154;51.674;7.824;2022-09-17T09:00:10;10.40;;;3.33;;
48871;SDS011;36154;51.674;7.824;2022-09-17T09:05:36;9.43;;;3.78;;
48871;SDS011;36154;51.674;7.824;2022-09-17T09:10:45;12.00;;;3.60;;
48871;SDS011;36154;51.674;7.824;2022-09-17T09:13:17;12.00;;;4.38;;
48871;SDS011;36154;51.674;7.824;2022-09-17T09:15:52;8.73;;;3.33;;
48871;SDS011;36154;51.674;7.824;2022-09-17T09:18:23;9.00;;;3.58;;
48871;SDS011;36154;51.674;7.824;2022-09-17T09:20:51;10.30;;;3.55;;
48871;SDS011;36154;51.674;7.824;2022-09-17T09:23:32;9.20;;;3.13;;
48871;SDS011;36154;51.674;7.824;2022-09-17T09:26:37;8.25;;;2.80;;
48871;SDS011;36154;51.674;7.824;2022-09-17T09:34:33;8.73;;;3.20;;
48871;SDS011;36154;51.674;7.824;2022-09-17T09:39:55;5.10;;;2.53;;
48871;SDS011;36154;51.674;7.824;2022-09-17T09:42:31;7.57;;;2.42;;
48871;SDS011;36154;51.674;7.824;2022-09-17T09:44:59;6.82;;;2.72;;
48871;SDS011;36154;51.674;7.824;2022-09-17T09:50:25;6.53;;;2.63;;
48871;SDS011;36154;51.674;7.824;2022-09-17T09:53:09;9.57;;;2.85;;
48871;SDS011;36154;51.674;7.824;2022-09-17T09:58:40;5.38;;;2.25;;
48871;SDS011;36154;51.674;7.824;2022-09-17T10:01:16;8.20;;;2.65;;
48871;SDS011;36154;51.674;7.824;2022-09-17T10:03:46;11.98;;;2.53;;
48871;SDS011;36154;51.674;7.824;2022-09-17T10:06:13;6.20;;;1.90;;
48871;SDS011;36154;51.674;7.824;2022-09-17T10:08:42;6.38;;;1.88;;
48871;SDS011;36154;51.674;7.824;2022-09-17T10:11:26;5.03;;;1.65;;
48871;SDS011;36154;51.674;7.824;2022-09-17T10:14:12;3.58;;;1.80;;
48871;SDS011;36154;51.674;7.824;2022-09-17T10:16:49;4.82;;;1.67;;
48871;SDS011;36154;51.674;7.824;2022-09-17T10:19:18;4.15;;;1.40;;
48871;SDS011;36154;51.674;7.824;2022-09-17T10:21:49;2.63;;;1.42;;
48871;SDS011;36154;51.674;7.824;2022-09-17T10:24:22;1.98;;;1.40;;
48871;SDS011;36154;51.674;7.824;2022-09-17T10:26:51;3.78;;;1.58;;
48871;SDS011;36154;51.674;7.824;2022-09-17T10:29:24;1.73;;;1.20;;
48871;SDS011;36154;51.674;7.824;2022-09-17T10:31:50;2.45;;;1.25;;
48871;SDS011;36154;51.674;7.824;2022-09-17T10:34:18;2.70;;;1.17;;
48871;SDS011;36154;51.674;7.824;2022-09-17T10:36:45;2.03;;;1.10;;
48871;SDS011;36154;51.674;7.824;2022-09-17T10:42:02;2.42;;;0.90;;
48871;SDS011;36154;51.674;7.824;2022-09-17T10:45:00;1.13;;;0.80;;
48871;SDS011;36154;51.674;7.824;2022-09-17T10:47:29;1.75;;;1.10;;
48871;SDS011;36154;51.674;7.824;2022-09-17T10:49:59;1.52;;;0.88;;
48871;SDS011;36154;51.674;7.824;2022-09-17T10:52:28;2.30;;;1.02;;
48871;SDS011;36154;51.674;7.824;2022-09-17T11:00:37;4.18;;;1.35;;
48871;SDS011;36154;51.674;7.824;2022-09-17T11:03:15;1.73;;;1.10;;
48871;SDS011;36154;51.674;7.824;2022-09-17T11:11:05;1.10;;;0.90;;
48871;SDS011;36154;51.674;7.824;2022-09-17T11:19:30;1.17;;;1.00;;
48871;SDS011;36154;51.674;7.824;2022-09-17T11:22:28;2.25;;;1.13;;
48871;SDS011;36154;51.674;7.824;2022-09-17T11:30:48;2.80;;;0.98;;
48871;SDS011;36154;51.674;7.824;2022-09-17T11:33:26;2.88;;;0.90;;
48871;SDS011;36154;51.674;7.824;2022-09-17T11:36:18;2.30;;;0.82;;
48871;SDS011;36154;51.674;7.824;2022-09-17T11:38:49;4.70;;;0.85;;
48871;SDS011;36154;51.674;7.824;2022-09-17T11:46:36;4.00;;;1.02;;
48871;SDS011;36154;51.674;7.824;2022-09-17T11:51:58;2.22;;;0.80;;
48871;SDS011;36154;51.674;7.824;2022-09-17T11:54:32;5.07;;;1.00;;
48871;SDS011;36154;51.674;7.824;2022-09-17T11:57:12;1.20;;;0.65;;
48871;SDS011;36154;51.674;7.824;2022-09-17T11:59:49;1.15;;;0.65;;
48871;SDS011;36154;51.674;7.824;2022-09-17T12:02:43;1.95;;;0.70;;
48871;SDS011;36154;51.674;7.824;2022-09-17T12:05:17;1.25;;;0.50;;
48871;SDS011;36154;51.674;7.824;2022-09-17T12:11:00;0.73;;;0.50;;
48871;SDS011;36154;51.674;7.824;2022-09-17T12:13:44;0.68;;;0.50;;
48871;SDS011;36154;51.674;7.824;2022-09-17T12:19:22;1.58;;;0.70;;
48871;SDS011;36154;51.674;7.824;2022-09-17T12:21:55;0.70;;;0.70;;
48871;SDS011;36154;51.674;7.824;2022-09-17T12:24:25;1.08;;;0.52;;
48871;SDS011;36154;51.674;7.824;2022-09-17T12:35:39;0.65;;;0.63;;
48871;SDS011;36154;51.674;7.824;2022-09-17T12:40:59;2.08;;;0.30;;
48871;SDS011;36154;51.674;7.824;2022-09-17T12:52:02;1.17;;;0.60;;
48871;SDS011;36154;51.674;7.824;2022-09-17T12:59:48;0.80;;;0.40;;
48871;SDS011;36154;51.674;7.824;2022-09-17T13:02:30;0.38;;;0.30;;
48871;SDS011;36154;51.674;7.824;2022-09-17T13:13:24;0.50;;;0.20;;
48871;SDS011;36154;51.674;7.824;2022-09-17T13:21:12;1.83;;;0.60;;
48871;SDS011;36154;51.674;7.824;2022-09-17T13:23:46;0.43;;;0.43;;
48871;SDS011;36154;51.674;7.824;2022-09-17T13:26:14;1.77;;;0.40;;
48871;SDS011;36154;51.674;7.824;2022-09-17T13:28:46;0.60;;;0.40;;
48871;SDS011;36154;51.674;7.824;2022-09-17T13:31:19;0.35;;;0.32;;
48871;SDS011;36154;51.674;7.824;2022-09-17T13:39:31;0.43;;;0.40;;
48871;SDS011;36154;51.674;7.824;2022-09-17T13:41:58;0.32;;;0.30;;
48871;SDS011;36154;51.674;7.824;2022-09-17T13:44:35;0.85;;;0.50;;
48871;SDS011;36154;51.674;7.824;2022-09-17T13:47:09;1.30;;;0.30;;
48871;SDS011;36154;51.674;7.824;2022-09-17T13:49:48;0.40;;;0.30;;
48871;SDS011;36154;51.674;7.824;2022-09-17T13:52:33;0.93;;;0.30;;
48871;SDS011;36154;51.674;7.824;2022-09-17T13:55:00;0.57;;;0.30;;
48871;SDS011;36154;51.674;7.824;2022-09-17T13:57:26;0.57;;;0.47;;
48871;SDS011;36154;51.674;7.824;2022-09-17T13:59:56;0.50;;;0.30;;
48871;SDS011;36154;51.674;7.824;2022-09-17T14:04:49;0.33;;;0.30;;
48871;SDS011;36154;51.674;7.824;2022-09-17T14:09:55;0.50;;;0.32;;
48871;SDS011;36154;51.674;7.824;2022-09-17T14:20:52;0.77;;;0.30;;
48871;SDS011;36154;51.674;7.824;2022-09-17T14:23:19;0.88;;;0.30;;
48871;SDS011;36154;51.674;7.824;2022-09-17T14:25:51;0.85;;;0.30;;
48871;SDS011;36154;51.674;7.824;2022-09-17T14:28:33;0.40;;;0.20;;
48871;SDS011;36154;51.674;7.824;2022-09-17T14:31:17;0.30;;;0.28;;
48871;SDS011;36154;51.674;7.824;2022-09-17T14:33:45;0.30;;;0.28;;
48871;SDS011;36154;51.674;7.824;2022-09-17T14:36:15;0.30;;;0.30;;
48871;SDS011;36154;51.674;7.824;2022-09-17T14:38:45;0.63;;;0.30;;
48871;SDS011;36154;51.674;7.824;2022-09-17T14:41:19;1.48;;;0.20;;
48871;SDS011;36154;51.674;7.824;2022-09-17T14:46:29;0.40;;;0.30;;
48871;SDS011;36154;51.674;7.824;2022-09-17T14:51:48;4.47;;;0.50;;
48871;SDS011;36154;51.674;7.824;2022-09-17T14:54:19;1.25;;;0.43;;
48871;SDS011;36154;51.674;7.824;2022-09-17T15:01:50;0.98;;;0.30;;
48871;SDS011;36154;51.674;7.824;2022-09-17T15:04:20;5.55;;;0.38;;
48871;SDS011;36154;51.674;7.824;2022-09-17T15:06:47;1.00;;;0.30;;
48871;SDS011;36154;51.674;7.824;2022-09-17T15:09:14;2.47;;;0.40;;
48871;SDS011;36154;51.674;7.824;2022-09-17T15:11:46;2.25;;;0.25;;
48871;SDS011;36154;51.674;7.824;2022-09-17T15:14:18;1.10;;;0.45;;
48871;SDS011;36154;51.674;7.824;2022-09-17T15:16:47;1.17;;;0.40;;
48871;SDS011;36154;51.674;7.824;2022-09-17T15:19:37;0.22;;;0.20;;
48871;SDS011;36154;51.674;7.824;2022-09-17T15:22:12;0.68;;;0.43;;
48871;SDS011;36154;51.674;7.824;2022-09-17T15:24:53;0.98;;;0.35;;
48871;SDS011;36154;51.674;7.824;2022-09-17T15:29:50;0.70;;;0.30;;
48871;SDS011;36154;51.674;7.824;2022-09-17T15:32:21;0.75;;;0.20;;
48871;SDS011;36154;51.674;7.824;2022-09-17T15:35:08;0.45;;;0.30;;
48871;SDS011;36154;51.674;7.824;2022-09-17T15:37:45;0.95;;;0.50;;
48871;SDS011;36154;51.674;7.824;2022-09-17T15:40:23;1.45;;;0.20;;
48871;SDS011;36154;51.674;7.824;2022-09-17T15:43:00;3.30;;;0.30;;
48871;SDS011;36154;51.674;7.824;2022-09-17T15:45:49;0.43;;;0.20;;
48871;SDS011;36154;51.674;7.824;2022-09-17T15:50:59;0.10;;;0.10;;
48871;SDS011;36154;51.674;7.824;2022-09-17T15:53:27;0.40;;;0.30;;
48871;SDS011;36154;51.674;7.824;2022-09-17T15:56:07;0.70;;;0.30;;
48871;SDS011;36154;51.674;7.824;2022-09-17T16:01:30;0.75;;;0.30;;
48871;SDS011;36154;51.674;7.824;2022-09-17T16:08:54;0.30;;;0.20;;
48871;SDS011;36154;51.674;7.824;2022-09-17T16:11:30;1.23;;;0.35;;
48871;SDS011;36154;51.674;7.824;2022-09-17T16:13:57;0.65;;;0.22;;
48871;SDS011;36154;51.674;7.824;2022-09-17T16:16:27;1.48;;;0.30;;
48871;SDS011;36154;51.674;7.824;2022-09-17T16:18:57;3.35;;;0.20;;
48871;SDS011;36154;51.674;7.824;2022-09-17T16:21:23;0.60;;;0.30;;
48871;SDS011;36154;51.674;7.824;2022-09-17T16:23:49;4.05;;;0.30;;
48871;SDS011;36154;51.674;7.824;2022-09-17T16:26:18;1.92;;;0.20;;
48871;SDS011;36154;51.674;7.824;2022-09-17T16:28:47;1.48;;;0.20;;
48871;SDS011;36154;51.674;7.824;2022-09-17T16:31:20;2.08;;;0.30;;
48871;SDS011;36154;51.674;7.824;2022-09-17T16:33:45;0.38;;;0.20;;
48871;SDS011;36154;51.674;7.824;2022-09-17T16:36:11;1.38;;;0.32;;
48871;SDS011;36154;51.674;7.824;2022-09-17T16:38:40;0.85;;;0.20;;
48871;SDS011;36154;51.674;7.824;2022-09-17T16:41:06;0.30;;;0.25;;
48871;SDS011;36154;51.674;7.824;2022-09-17T16:43:32;2.50;;;0.17;;
48871;SDS011;36154;51.674;7.824;2022-09-17T16:46:03;0.80;;;0.30;;
48871;SDS011;36154;51.674;7.824;2022-09-17T16:48:30;0.40;;;0.20;;
48871;SDS011;36154;51.674;7.824;2022-09-17T16:50:57;0.40;;;0.20;;
48871;SDS011;36154;51.674;7.824;2022-09-17T16:53:26;1.35;;;0.30;;
48871;SDS011;36154;51.674;7.824;2022-09-17T16:55:52;0.45;;;0.38;;
48871;SDS011;36154;51.674;7.824;2022-09-17T16:58:18;0.40;;;0.20;;
48871;SDS011;36154;51.674;7.824;2022-09-17T17:00:44;1.05;;;0.25;;
48871;SDS011;36154;51.674;7.824;2022-09-17T17:03:11;0.73;;;0.30;;
48871;SDS011;36154;51.674;7.824;2022-09-17T17:05:38;2.20;;;0.10;;
48871;SDS011;36154;51.674;7.824;2022-09-17T17:08:05;1.75;;;0.10;;
48871;SDS011;36154;51.674;7.824;2022-09-17T17:10:31;0.57;;;0.20;;
48871;SDS011;36154;51.674;7.824;2022-09-17T17:12:57;1.88;;;0.30;;
48871;SDS011;36154;51.674;7.824;2022-09-17T17:15:23;4.10;;;0.82;;
48871;SDS011;36154;51.674;7.824;2022-09-17T17:17:49;9.88;;;1.75;;
48871;SDS011;36154;51.674;7.824;2022-09-17T17:20:15;19.20;;;3.63;;
48871;SDS011;36154;51.674;7.824;2022-09-17T17:22:42;31.30;;;6.43;;
48871;SDS011;36154;51.674;7.824;2022-09-17T17:25:09;28.52;;;5.22;;
48871;SDS011;36154;51.674;7.824;2022-09-17T17:27:36;28.60;;;5.50;;
48871;SDS011;36154;51.674;7.824;2022-09-17T17:30:03;36.45;;;7.45;;
48871;SDS011;36154;51.674;7.824;2022-09-17T17:32:31;25.38;;;5.75;;
48871;SDS011;36154;51.674;7.824;2022-09-17T17:34:58;30.20;;;6.20;;
48871;SDS011;36154;51.674;7.824;2022-09-17T17:37:24;28.90;;;6.40;;
48871;SDS011;36154;51.674;7.824;2022-09-17T17:39:50;22.25;;;5.38;;
48871;SDS011;36154;51.674;7.824;2022-09-17T17:42:18;23.00;;;6.15;;
48871;SDS011;36154;51.674;7.824;2022-09-17T17:44:44;26.65;;;5.20;;
48871;SDS011;36154;51.674;7.824;2022-09-17T17:47:11;24.48;;;5.95;;
48871;SDS011;36154;51.674;7.824;2022-09-17T17:49:38;21.77;;;5.40;;
48871;SDS011;36154;51.674;7.824;2022-09-17T17:52:03;22.60;;;5.53;;
48871;SDS011;36154;51.674;7.824;2022-09-17T17:54:29;26.15;;;6.03;;
48871;SDS011;36154;51.674;7.824;2022-09-17T17:56:55;18.08;;;5.00;;
48871;SDS011;36154;51.674;7.824;2022-09-17T17:59:21;16.45;;;5.28;;
48871;SDS011;36154;51.674;7.824;2022-09-17T18:01:48;18.75;;;5.32;;
48871;SDS011;36154;51.674;7.824;2022-09-17T18:04:13;18.88;;;5.63;;
48871;SDS011;36154;51.674;7.824;2022-09-17T18:06:40;19.00;;;5.13;;
48871;SDS011;36154;51.674;7.824;2022-09-17T18:09:06;16.98;;;4.57;;
48871;SDS011;36154;51.674;7.824;2022-09-17T18:11:33;17.92;;;4.85;;
48871;SDS011;36154;51.674;7.824;2022-09-17T18:13:59;15.45;;;4.43;;